createdAt,value
2024-01-25T00:00:40.019Z,11.70
2024-01-25T00:03:08.004Z,11.60
2024-01-25T00:05:37.603Z,11.60
2024-01-25T00:08:06.332Z,11.60
2024-01-25T00:10:34.276Z,11.50
2024-01-25T00:13:02.711Z,11.50
2024-01-25T00:15:31.802Z,11.50
2024-01-25T00:18:00.019Z,11.50
2024-01-25T00:20:28.175Z,11.40
2024-01-25T00:22:57.615Z,11.40
2024-01-25T00:25:25.643Z,11.30
2024-01-25T00:27:54.220Z,11.30
2024-01-25T00:30:22.221Z,11.30
2024-01-25T00:32:50.948Z,11.30
2024-01-25T00:35:20.732Z,11.20
2024-01-25T00:37:49.722Z,11.20
2024-01-25T00:40:20.248Z,11.20
2024-01-25T00:42:54.439Z,11.10
2024-01-25T00:45:23.929Z,11.10
2024-01-25T00:47:54.001Z,11.10
2024-01-25T00:50:25.301Z,11.00
2024-01-25T00:52:54.136Z,11.00
2024-01-25T00:55:24.598Z,11.00
2024-01-25T00:57:53.870Z,11.00
2024-01-25T01:00:23.310Z,11.00
2024-01-25T01:02:55.326Z,11.00
2024-01-25T01:05:24.413Z,12.60
2024-01-25T01:07:53.226Z,10.90
2024-01-25T01:10:21.524Z,10.90
2024-01-25T01:12:50.983Z,10.80
2024-01-25T01:15:19.197Z,10.80
2024-01-25T01:17:47.557Z,10.80
2024-01-25T01:20:16.306Z,11.10
2024-01-25T01:22:44.749Z,10.80
2024-01-25T01:25:12.862Z,10.70
2024-01-25T01:27:40.906Z,10.70
2024-01-25T01:30:11.565Z,10.70
2024-01-25T01:32:39.607Z,10.60
2024-01-25T01:35:08.583Z,10.70
2024-01-25T01:37:36.714Z,10.60
2024-01-25T01:40:05.067Z,10.50
2024-01-25T01:42:33.964Z,10.50
2024-01-25T01:45:02.019Z,10.50
2024-01-25T01:47:34.390Z,10.60
2024-01-25T01:50:03.666Z,10.40
2024-01-25T01:52:33.278Z,10.50
2024-01-25T01:55:01.590Z,10.40
2024-01-25T01:57:30.838Z,10.30
2024-01-25T02:00:01.311Z,10.70
2024-01-25T02:02:30.689Z,10.30
2024-01-25T02:05:00.680Z,10.30
2024-01-25T02:07:28.662Z,10.30
2024-01-25T02:09:56.693Z,10.20
2024-01-25T02:12:24.738Z,10.20
2024-01-25T02:14:52.678Z,10.20
2024-01-25T02:17:20.590Z,10.10
2024-01-25T02:19:48.579Z,10.10
2024-01-25T02:22:19.934Z,10.10
2024-01-25T02:24:48.036Z,10.10
2024-01-25T02:47:07.507Z,10.00
2024-01-25T02:49:35.719Z,9.90
2024-01-25T02:59:35.745Z,9.90
2024-01-25T03:02:03.782Z,9.80
2024-01-25T03:04:33.497Z,9.70
2024-01-25T03:07:01.804Z,9.70
2024-01-25T03:09:32.225Z,9.70
2024-01-25T03:12:00.339Z,9.80
2024-01-25T03:14:32.021Z,9.70
2024-01-25T03:17:00.082Z,9.60
2024-01-25T03:19:31.987Z,9.60
2024-01-25T03:22:02.040Z,9.60
2024-01-25T03:24:31.784Z,9.60
2024-01-25T03:26:59.711Z,9.60
2024-01-25T03:29:28.998Z,9.60
2024-01-25T03:31:57.673Z,9.50
2024-01-25T03:34:25.807Z,9.40
2024-01-25T03:36:55.454Z,9.40
2024-01-25T03:39:23.499Z,10.90
2024-01-25T03:44:19.779Z,9.30
2024-01-25T03:46:49.768Z,9.30
2024-01-25T03:49:18.711Z,9.30
2024-01-25T03:51:47.292Z,9.20
2024-01-25T03:54:15.778Z,8.90
2024-01-25T03:56:44.443Z,9.20
2024-01-25T03:59:14.969Z,10.10
2024-01-25T04:01:48.554Z,9.10
2024-01-25T04:04:19.783Z,9.90
2024-01-25T04:06:48.266Z,9.10
2024-01-25T04:09:18.340Z,9.00
2024-01-25T04:11:46.819Z,8.90
2024-01-25T04:14:16.933Z,9.00
2024-01-25T04:16:47.611Z,8.90
2024-01-25T04:19:17.254Z,8.90
2024-01-25T04:21:45.284Z,9.10
2024-01-25T04:24:13.187Z,8.90
2024-01-25T04:29:09.384Z,8.80
2024-01-25T04:31:37.263Z,8.80
2024-01-25T04:34:05.252Z,8.70
2024-01-25T04:36:34.618Z,8.70
2024-01-25T04:39:02.717Z,9.00
2024-01-25T04:41:34.530Z,8.70
2024-01-25T04:44:02.634Z,8.60
2024-01-25T04:46:36.520Z,8.60
2024-01-25T04:49:04.538Z,8.60
2024-01-25T04:51:34.624Z,8.60
2024-01-25T04:54:03.525Z,8.50
2024-01-25T04:59:00.480Z,8.50
2024-01-25T05:01:28.631Z,8.50
2024-01-25T05:03:56.758Z,8.50
2024-01-25T05:06:24.750Z,8.50
2024-01-25T05:08:54.030Z,8.40
2024-01-25T05:11:21.907Z,8.40
2024-01-25T05:13:49.769Z,8.70
2024-01-25T05:16:18.580Z,8.40
2024-01-25T05:18:47.238Z,8.40
2024-01-25T05:21:15.928Z,8.30
2024-01-25T05:23:43.922Z,8.30
2024-01-25T05:26:13.883Z,8.30
2024-01-25T05:28:41.842Z,8.30
2024-01-25T05:31:13.983Z,8.80
2024-01-25T05:33:42.294Z,8.20
2024-01-25T05:36:10.771Z,8.20
2024-01-25T05:38:38.733Z,8.20
2024-01-25T05:41:06.596Z,8.30
2024-01-25T05:43:36.102Z,8.20
2024-01-25T05:46:05.320Z,8.20
2024-01-25T05:48:33.676Z,8.20
2024-01-25T05:51:01.728Z,8.10
2024-01-25T05:53:32.043Z,8.10
2024-01-25T05:56:00.500Z,8.10
2024-01-25T05:58:28.519Z,8.10
2024-01-25T06:00:58.006Z,9.00
2024-01-25T06:03:26.010Z,8.10
2024-01-25T06:05:54.087Z,8.50
2024-01-25T06:08:22.153Z,8.10
2024-01-25T06:10:51.498Z,8.10
2024-01-25T06:13:19.537Z,8.10
2024-01-25T06:15:47.599Z,8.00
2024-01-25T06:18:17.392Z,8.00
2024-01-25T06:20:45.923Z,8.00
2024-01-25T06:23:14.090Z,8.00
2024-01-25T06:25:42.318Z,8.10
2024-01-25T06:28:10.289Z,8.10
2024-01-25T06:30:38.266Z,8.00
2024-01-25T06:33:06.988Z,8.40
2024-01-25T06:35:36.396Z,8.00
2024-01-25T06:38:04.322Z,8.00
2024-01-25T06:40:33.335Z,8.00
2024-01-25T06:43:01.363Z,8.00
2024-01-25T06:45:31.530Z,8.50
2024-01-25T06:47:59.586Z,8.00
2024-01-25T06:50:27.932Z,7.90
2024-01-25T06:52:57.779Z,7.90
2024-01-25T06:55:25.825Z,7.90
2024-01-25T06:57:53.887Z,7.90
2024-01-25T07:00:22.502Z,7.90
2024-01-25T07:02:50.935Z,7.90
2024-01-25T07:05:20.123Z,7.90
2024-01-25T07:07:48.307Z,7.90
2024-01-25T07:10:18.322Z,7.90
2024-01-25T07:12:46.602Z,7.90
2024-01-25T07:15:16.536Z,7.90
2024-01-25T07:17:44.832Z,7.90
2024-01-25T07:20:13.847Z,7.90
2024-01-25T07:22:41.895Z,7.90
2024-01-25T07:25:10.346Z,7.90
2024-01-25T07:27:39.684Z,7.90
2024-01-25T07:30:10.151Z,7.90
2024-01-25T07:32:39.199Z,7.90
2024-01-25T07:35:07.999Z,7.90
2024-01-25T07:37:38.188Z,7.90
2024-01-25T07:40:07.820Z,8.60
2024-01-25T07:42:35.832Z,7.90
2024-01-25T07:45:06.099Z,7.90
2024-01-25T07:47:34.645Z,7.90
2024-01-25T07:50:03.253Z,7.90
2024-01-25T07:52:33.464Z,8.10
2024-01-25T07:57:35.448Z,7.90
2024-01-25T08:00:06.210Z,7.90
2024-01-25T08:02:34.424Z,7.90
2024-01-25T08:05:02.697Z,7.90
2024-01-25T08:12:33.607Z,7.90
2024-01-25T10:29:42.858Z,8.00
2024-01-25T10:32:12.240Z,10.10
2024-01-25T10:34:42.046Z,10.20
2024-01-25T10:37:10.467Z,10.10
2024-01-25T10:39:39.206Z,10.20
2024-01-25T10:42:07.601Z,10.30
2024-01-25T10:44:35.642Z,10.30
2024-01-25T10:47:04.126Z,10.40
2024-01-25T10:49:37.792Z,10.40
2024-01-25T10:52:07.425Z,10.40
2024-01-25T10:54:35.842Z,10.50
2024-01-25T10:57:03.862Z,10.50
2024-01-25T10:59:35.927Z,10.60
2024-01-25T11:04:36.535Z,10.60
2024-01-25T11:07:09.971Z,10.70
2024-01-25T11:09:38.958Z,10.70
2024-01-25T11:12:14.449Z,11.00
2024-01-25T11:14:42.567Z,10.80
2024-01-25T11:17:21.904Z,10.80
2024-01-25T11:19:55.357Z,10.80
2024-01-25T11:22:23.472Z,10.80
2024-01-25T11:24:52.343Z,10.90
2024-01-25T11:27:21.548Z,10.90
2024-01-25T11:29:50.073Z,10.90
2024-01-25T11:32:18.077Z,10.90
2024-01-25T11:34:46.105Z,10.90
2024-01-25T11:37:19.215Z,11.30
2024-01-25T11:39:47.323Z,11.00
2024-01-25T11:42:15.441Z,11.00
2024-01-25T11:44:43.366Z,11.00
2024-01-25T11:47:11.591Z,11.80
2024-01-25T11:49:39.661Z,11.00
2024-01-25T11:52:08.804Z,11.10
2024-01-25T11:54:38.101Z,11.10
2024-01-25T11:57:06.733Z,11.10
2024-01-25T11:59:35.465Z,11.20
2024-01-25T12:02:03.616Z,11.20
2024-01-25T12:04:36.953Z,11.30
2024-01-25T12:07:06.574Z,11.30
2024-01-25T12:09:34.726Z,11.30
2024-01-25T12:12:04.506Z,11.50
2024-01-25T12:14:33.442Z,11.30
2024-01-25T12:17:01.384Z,11.30
2024-01-25T12:19:31.863Z,11.40
2024-01-25T12:24:28.292Z,11.40
2024-01-25T12:26:57.089Z,11.40
2024-01-25T12:29:26.462Z,11.50
2024-01-25T12:31:54.419Z,11.50
2024-01-25T12:34:23.199Z,11.50
2024-01-25T12:36:53.724Z,11.80
2024-01-25T12:39:21.825Z,11.60
2024-01-25T12:41:50.034Z,11.80
2024-01-25T12:44:20.292Z,11.60
2024-01-25T12:46:49.801Z,11.70
2024-01-25T12:49:18.021Z,11.70
2024-01-25T12:51:46.256Z,11.70
2024-01-25T12:54:14.435Z,11.70
2024-01-25T12:56:42.686Z,11.80
2024-01-25T12:59:12.175Z,11.80
2024-01-25T13:01:40.371Z,11.80
2024-01-25T13:04:09.982Z,11.80
2024-01-25T13:06:38.915Z,11.80
2024-01-25T13:09:07.003Z,11.90
2024-01-25T13:11:34.858Z,11.90
2024-01-25T13:14:02.776Z,11.90
2024-01-25T13:16:33.177Z,11.90
2024-01-25T13:19:01.231Z,11.90
2024-01-25T13:21:31.897Z,11.90
2024-01-25T13:24:01.172Z,11.90
2024-01-25T13:26:30.736Z,11.90
2024-01-25T13:28:58.844Z,11.90
2024-01-25T13:31:26.764Z,11.90
2024-01-25T13:33:54.818Z,11.90
2024-01-25T13:36:23.031Z,12.00
2024-01-25T13:38:52.716Z,11.90
2024-01-25T13:41:20.983Z,12.00
2024-01-25T13:43:48.918Z,12.00
2024-01-25T13:46:18.476Z,12.00
2024-01-25T13:48:48.025Z,12.00
2024-01-25T13:51:16.156Z,12.00
2024-01-25T13:53:44.136Z,12.00
2024-01-25T13:56:13.464Z,12.00
2024-01-25T13:58:41.347Z,12.00
2024-01-25T14:01:09.360Z,12.00
2024-01-25T14:03:37.815Z,12.00
2024-01-25T14:06:06.398Z,12.00
2024-01-25T14:08:34.605Z,12.00
2024-01-25T14:11:02.993Z,12.00
2024-01-25T14:13:34.918Z,12.00
2024-01-25T14:16:03.752Z,12.00
2024-01-25T14:18:39.183Z,12.00
2024-01-25T14:21:07.680Z,11.90
2024-01-25T14:23:38.492Z,11.90
2024-01-25T14:26:06.671Z,12.00
2024-01-25T14:28:36.036Z,11.90
2024-01-25T14:31:04.187Z,11.90
2024-01-25T14:33:33.613Z,11.90
2024-01-25T14:36:03.900Z,11.90
2024-01-25T14:38:34.932Z,11.90
2024-01-25T14:41:03.207Z,11.90
2024-01-25T14:46:02.279Z,11.90
2024-01-25T14:48:33.790Z,11.90
2024-01-25T14:51:02.147Z,11.90
2024-01-25T14:53:31.950Z,11.90
2024-01-25T14:56:00.082Z,11.90
2024-01-25T14:58:28.556Z,11.90
2024-01-25T15:00:56.655Z,11.90
2024-01-25T15:15:52.376Z,11.90
2024-01-25T15:30:51.592Z,11.90
2024-01-25T15:33:20.406Z,11.80
2024-01-25T15:35:49.815Z,11.80
2024-01-25T15:38:19.192Z,11.70
2024-01-25T15:40:47.072Z,12.00
2024-01-25T15:43:15.220Z,11.80
2024-01-25T15:45:43.169Z,11.70
2024-01-25T15:48:11.186Z,11.70
2024-01-25T15:50:40.553Z,11.70
2024-01-25T15:53:09.842Z,11.70
2024-01-25T15:55:37.720Z,11.60
2024-01-25T15:58:05.752Z,11.60
2024-01-25T16:00:33.808Z,11.60
2024-01-25T16:03:02.277Z,11.60
2024-01-25T16:05:33.101Z,11.60
2024-01-25T16:08:01.150Z,11.60
2024-01-25T16:10:33.008Z,11.80
2024-01-25T16:13:01.187Z,11.60
2024-01-25T16:15:30.855Z,11.60
2024-01-25T16:17:58.924Z,11.60
2024-01-25T16:20:26.964Z,11.60
2024-01-25T16:22:55.005Z,11.50
2024-01-25T16:25:22.975Z,11.50
2024-01-25T16:27:54.562Z,11.50
2024-01-25T16:30:22.610Z,11.50
2024-01-25T16:32:53.487Z,11.90
2024-01-25T16:35:21.484Z,11.50
2024-01-25T16:37:49.739Z,11.50
2024-01-25T16:40:18.077Z,11.60
2024-01-25T16:42:45.990Z,11.50
2024-01-25T16:45:15.555Z,11.50
2024-01-25T16:47:43.587Z,11.50
2024-01-25T16:50:12.161Z,11.50
2024-01-25T16:52:40.189Z,11.50
2024-01-25T16:55:09.649Z,11.50
2024-01-25T16:57:41.230Z,11.50
2024-01-25T17:02:39.395Z,11.50
2024-01-25T17:05:07.610Z,11.50
2024-01-25T17:07:35.709Z,11.50
2024-01-25T17:10:04.886Z,11.50
2024-01-25T17:12:33.425Z,11.50
2024-01-25T17:15:01.412Z,11.50
2024-01-25T17:17:33.931Z,11.50
2024-01-25T17:20:04.939Z,11.50
2024-01-25T17:22:33.396Z,11.50
2024-01-25T17:25:01.735Z,11.50
2024-01-25T17:27:30.738Z,11.50
2024-01-25T17:29:58.887Z,11.50
2024-01-25T17:32:27.029Z,11.50
2024-01-25T17:34:56.111Z,11.50
2024-01-25T17:37:25.411Z,11.50
2024-01-25T17:42:22.616Z,11.50
2024-01-25T17:44:52.848Z,11.50
2024-01-25T17:47:20.784Z,11.50
2024-01-25T17:49:48.759Z,11.50
2024-01-25T17:52:16.759Z,11.50
2024-01-25T17:54:46.230Z,11.60
2024-01-25T17:57:14.326Z,11.60
2024-01-25T17:59:42.485Z,11.60
2024-01-25T18:02:10.418Z,11.60
2024-01-25T18:04:38.411Z,11.60
2024-01-25T18:07:06.424Z,11.60
2024-01-25T18:09:34.907Z,11.60
2024-01-25T18:12:04.468Z,11.60
2024-01-25T18:14:34.178Z,11.70
2024-01-25T18:17:02.083Z,11.70
2024-01-25T18:19:33.087Z,11.70
2024-01-25T18:22:01.229Z,11.70
2024-01-25T18:24:30.815Z,11.70
2024-01-25T18:26:58.823Z,11.70
2024-01-25T18:29:34.337Z,11.70
2024-01-25T18:32:02.428Z,11.70
2024-01-25T18:34:31.836Z,11.80
2024-01-25T18:36:59.955Z,11.80
2024-01-25T18:39:28.857Z,11.80
2024-01-25T18:41:57.116Z,11.80
2024-01-25T18:44:25.268Z,11.80
2024-01-25T18:46:54.518Z,12.00
2024-01-25T18:49:22.597Z,11.80
2024-01-25T18:51:51.114Z,11.90
2024-01-25T18:54:20.379Z,11.90
2024-01-25T18:56:51.582Z,11.90
2024-01-25T18:59:20.117Z,11.90
2024-01-25T19:01:48.554Z,11.90
2024-01-25T19:04:19.397Z,11.90
2024-01-25T19:06:54.118Z,11.90
2024-01-25T19:09:22.753Z,12.20
2024-01-25T19:11:50.962Z,12.00
2024-01-25T19:14:19.422Z,12.00
2024-01-25T19:16:48.992Z,12.00
2024-01-25T19:19:19.803Z,12.00
2024-01-25T19:21:49.961Z,12.00
2024-01-25T19:24:19.758Z,12.00
2024-01-25T19:26:47.786Z,12.00
2024-01-25T19:29:15.830Z,12.10
2024-01-25T19:31:44.542Z,12.10
2024-01-25T19:34:12.508Z,12.10
2024-01-25T19:36:44.346Z,12.10
2024-01-25T19:39:12.357Z,12.10
2024-01-25T19:41:40.343Z,12.30
2024-01-25T19:44:08.352Z,12.20
2024-01-25T19:46:37.142Z,12.20
2024-01-25T19:49:06.519Z,12.20
2024-01-25T19:51:34.586Z,12.20
2024-01-25T19:54:04.025Z,12.20
2024-01-25T19:56:33.347Z,12.20
2024-01-25T19:59:02.538Z,12.30
2024-01-25T20:01:31.827Z,12.30
2024-01-25T20:04:00.346Z,12.30
2024-01-25T20:06:31.862Z,12.30
2024-01-25T20:08:59.871Z,12.30
2024-01-25T20:11:30.316Z,12.60
2024-01-25T20:13:58.332Z,12.40
2024-01-25T20:16:26.529Z,12.40
2024-01-25T20:18:54.696Z,12.40
2024-01-25T20:21:22.710Z,12.40
2024-01-25T20:23:50.903Z,12.40
2024-01-25T20:26:20.823Z,12.40
2024-01-25T20:28:53.026Z,12.50
2024-01-25T20:31:21.560Z,12.50
2024-01-25T20:33:51.513Z,12.50
2024-01-25T20:36:19.790Z,12.50
2024-01-25T20:38:47.718Z,12.50
2024-01-25T20:41:15.639Z,12.50
2024-01-25T20:43:45.087Z,12.60
2024-01-25T20:46:15.254Z,12.60
2024-01-25T20:48:43.544Z,12.60
2024-01-25T20:51:12.510Z,12.80
2024-01-25T20:53:45.609Z,12.70
2024-01-25T20:56:19.068Z,12.70
2024-01-25T20:58:47.522Z,12.70
2024-01-25T21:01:17.554Z,12.70
2024-01-25T21:03:46.030Z,12.70
2024-01-25T21:06:15.264Z,12.70
2024-01-25T21:08:43.840Z,12.80
2024-01-25T21:11:13.704Z,12.80
2024-01-25T21:13:43.898Z,12.80
2024-01-25T21:16:11.733Z,12.80
2024-01-25T21:18:41.492Z,12.80
2024-01-25T21:21:14.498Z,12.80
2024-01-25T21:23:42.569Z,13.10
2024-01-25T21:26:10.512Z,12.90
2024-01-25T21:28:38.699Z,12.90
2024-01-25T21:31:06.823Z,13.80
2024-01-25T21:33:34.907Z,12.90
2024-01-25T21:36:04.543Z,12.90
2024-01-25T21:38:33.772Z,13.00
2024-01-25T21:41:02.046Z,13.00
2024-01-25T21:43:30.702Z,13.00
2024-01-25T21:45:58.706Z,13.00
2024-01-25T21:48:26.844Z,13.00
2024-01-25T21:50:54.831Z,13.00
2024-01-25T21:53:24.213Z,13.00
2024-01-25T21:55:52.482Z,13.10
2024-01-25T21:58:20.580Z,13.10
2024-01-25T22:00:48.665Z,13.10
2024-01-25T22:03:16.705Z,13.10
2024-01-25T22:05:44.955Z,13.10
2024-01-25T22:08:15.432Z,13.10
2024-01-25T22:10:44.796Z,13.10
2024-01-25T22:13:12.656Z,13.20
2024-01-25T22:15:40.993Z,13.20
2024-01-25T22:18:09.282Z,13.20
2024-01-25T22:20:37.230Z,13.20
2024-01-25T22:23:06.775Z,13.20
2024-01-25T22:25:34.714Z,13.20
2024-01-25T22:28:04.400Z,13.20
2024-01-25T22:30:35.236Z,13.20
2024-01-25T22:33:03.449Z,13.20
2024-01-25T22:35:34.018Z,13.50
2024-01-25T22:38:02.048Z,13.20
2024-01-25T22:40:31.841Z,13.20
2024-01-25T22:43:00.047Z,13.30
2024-01-25T22:45:30.478Z,13.30
2024-01-25T22:47:58.525Z,13.30
2024-01-25T22:50:26.456Z,13.30
2024-01-25T22:52:54.402Z,13.30
2024-01-25T22:55:22.353Z,13.30
2024-01-25T22:57:50.901Z,13.30
2024-01-25T23:00:22.765Z,13.30
2024-01-25T23:02:53.795Z,13.30
2024-01-25T23:05:23.419Z,13.30
2024-01-25T23:07:52.290Z,13.30
2024-01-25T23:10:20.910Z,13.40
2024-01-25T23:12:51.562Z,13.30
2024-01-25T23:15:19.945Z,13.40
2024-01-25T23:17:50.088Z,13.40
2024-01-25T23:20:19.420Z,13.40
2024-01-25T23:22:47.455Z,13.40
2024-01-25T23:25:16.699Z,13.40
2024-01-25T23:27:45.267Z,13.40
2024-01-25T23:30:13.503Z,13.40
2024-01-25T23:32:41.477Z,13.40
2024-01-25T23:35:10.265Z,13.40
2024-01-25T23:37:39.607Z,13.40
2024-01-25T23:40:09.033Z,13.40
2024-01-25T23:42:37.549Z,13.40
2024-01-25T23:45:07.895Z,13.40
2024-01-25T23:47:36.091Z,13.40
2024-01-25T23:50:04.283Z,13.40
2024-01-25T23:52:33.280Z,12.90
2024-01-25T23:55:02.669Z,13.40
2024-01-25T23:57:31.567Z,15.30
2024-01-25T23:59:59.737Z,13.40
